Lifjell — 3YWB — position and weather

sailwx.info

Track history (hours):
 
Tides and Currents Weather Stations Pressure Air Temp Water Temp Dewpoint Dewpoint Depression Visibility Wind Speed Wind Dir Waves Ship Positions

Lifjell

Last reported at 2018-Jan-20 01:30 UTC. Time now 2018-Jan-20 01:34 UTC.
Position N 68°44' E 016°46'.

Length 63 m; draft 5.2 m.

Type: Cargo ship. MMSI: 259091000.

Date/timePositionNaut miles runAvg speedWind from/ knotsBaromVisibWave heightAir tempDewpointWater temp
2018-Jan-20 01:30N 68°44' E 016°46'2 3.9
2018-Jan-20 01:00N 68°43' E 016°50'2 4.9
2018-Jan-20 00:30N 68°43' E 016°56'3 6.4
2018-Jan-20 00:00N 68°44' E 017°05'2 3.7
2018-Jan-19 23:28N 68°46' E 017°09'0 0.1
2018-Jan-19 22:58N 68°46' E 017°09'0 0.1
2018-Jan-19 22:28N 68°46' E 017°09'0 0.0
2018-Jan-19 21:58N 68°46' E 017°09'3 5.3
2018-Jan-19 21:29N 68°43' E 017°06'2 3.7
2018-Jan-19 21:00N 68°42' E 017°03'0 0.0
2018-Jan-19 20:30N 68°42' E 017°03'0 0.0
2018-Jan-19 20:00N 68°42' E 017°03'0 0.0
2018-Jan-19 19:30N 68°42' E 017°03'1 2.8
2018-Jan-19 19:00N 68°43' E 017°05'3 5.5
2018-Jan-19 18:28N 68°46' E 017°09'0 0.0
2018-Jan-19 17:55N 68°46' E 017°09'0 0.0
2018-Jan-19 17:28N 68°46' E 017°09'1 3.2
2018-Jan-19 16:59N 68°44' E 017°08'3 5.6
2018-Jan-19 16:28N 68°42' E 017°03'0 0.0
2018-Jan-19 15:58N 68°42' E 017°03'0 0.0
2018-Jan-19 15:28N 68°42' E 017°03'0 0.0
2018-Jan-19 14:58N 68°42' E 017°03'0 0.0
2018-Jan-19 14:28N 68°42' E 017°03'0 0.0
2018-Jan-19 13:58N 68°42' E 017°03'0 0.0
2018-Jan-19 13:29N 68°42' E 017°03'0 0.0
2018-Jan-19 13:00N 68°42' E 017°03'0 0.0
2018-Jan-19 12:28N 68°42' E 017°03'0 0.0
2018-Jan-19 11:58N 68°42' E 017°03'0 0.0
2018-Jan-19 11:28N 68°42' E 017°03'0 0.0
2018-Jan-19 10:58N 68°42' E 017°03'0 0.0
2018-Jan-19 10:28N 68°42' E 017°03'0 0.0
2018-Jan-19 09:58N 68°42' E 017°03'3 6.6
2018-Jan-19 09:30N 68°44' E 017°08'5 9.5
2018-Jan-19 08:59N 68°49' E 017°09'510.6
2018-Jan-19 08:30N 68°53' E 017°01'510.5
2018-Jan-19 08:00N 68°58' E 016°54'510.8
2018-Jan-19 07:30N 69°03' E 016°46'510.2
2018-Jan-19 07:00N 69°08' E 016°47'610.9
2018-Jan-19 06:30N 69°13' E 016°52'611.1
2018-Jan-19 06:00N 69°19' E 016°52'4 8.9
2018-Jan-19 05:30N 69°20' E 017°04'0 0.9
2018-Jan-19 04:58N 69°20' E 017°06'0 0.0
2018-Jan-19 04:28N 69°20' E 017°06'1 2.0
2018-Jan-19 04:00N 69°20' E 017°03'4 8.3
2018-Jan-19 03:30N 69°22' E 016°52'4 8.6
2018-Jan-19 03:00N 69°26' E 016°49'4 8.6
2018-Jan-19 02:30N 69°29' E 016°57'4 8.1
2018-Jan-19 02:00N 69°29' E 017°09'5 9.3
2018-Jan-19 01:30N 69°26' E 017°18'1 1.6
2018-Jan-19 00:55N 69°25' E 017°20'0 0.0
2018-Jan-19 00:28N 69°25' E 017°20'0 0.0
2018-Jan-18 23:58N 69°25' E 017°20'0 0.0
2018-Jan-18 23:28N 69°25' E 017°20'0 0.0
2018-Jan-18 22:58N 69°25' E 017°20'0 0.0
2018-Jan-18 22:22N 69°25' E 017°20'0 0.1
2018-Jan-18 21:56N 69°25' E 017°20'3 6.7
2018-Jan-18 21:30N 69°27' E 017°13'5 9.2
2018-Jan-18 21:00N 69°31' E 017°09'4 8.9
2018-Jan-18 20:30N 69°30' E 016°56'5 9.6
2018-Jan-18 20:00N 69°26' E 016°49'510.2
2018-Jan-18 19:30N 69°21' E 016°50'510.5
2018-Jan-18 19:00N 69°16' E 016°52'510.4
2018-Jan-18 18:30N 69°11' E 016°50'510.6
2018-Jan-18 18:00N 69°06' E 016°45'510.4
2018-Jan-18 17:30N 69°01' E 016°49'610.9
2018-Jan-18 17:00N 68°56' E 016°57'511.1
2018-Jan-18 16:30N 68°51' E 017°05'610.9
2018-Jan-18 15:59N 68°46' E 017°13'5 9.9
2018-Jan-18 15:31N 68°44' E 017°24'1 0.4
2018-Jan-18 13:09N 68°43' E 017°26'1 7.4
2018-Jan-18 12:58N 68°44' E 017°23'4 8.2
2018-Jan-18 12:30N 68°46' E 017°14'4 8.7
2018-Jan-18 12:00N 68°50' E 017°08'4 7.9
2018-Jan-18 11:30N 68°53' E 017°01'5 9.3
2018-Jan-18 11:00N 68°52' E 016°48'3 5.5
2018-Jan-18 10:29N 68°52' E 016°40'0 0.0
2018-Jan-18 09:59N 68°52' E 016°40'0 0.0
2018-Jan-18 09:29N 68°52' E 016°40'0 0.0
2018-Jan-18 08:59N 68°52' E 016°40'0 0.0
2018-Jan-18 08:29N 68°52' E 016°40'0 0.0
2018-Jan-18 08:00N 68°52' E 016°40'0 0.2
2018-Jan-18 07:29N 68°52' E 016°40'1 1.7
2018-Jan-18 07:00N 68°51' E 016°39'2 4.0
2018-Jan-18 06:30N 68°50' E 016°36'2 3.3
2018-Jan-18 05:59N 68°48' E 016°33'0 0.0
2018-Jan-18 05:29N 68°48' E 016°33'0 0.0
2018-Jan-18 04:59N 68°48' E 016°33'0 0.0
2018-Jan-18 04:29N 68°48' E 016°33'0 0.0
2018-Jan-18 03:59N 68°48' E 016°33'0 0.0
2018-Jan-18 03:29N 68°48' E 016°33'0 0.0
2018-Jan-18 02:59N 68°48' E 016°33'0 0.0
2018-Jan-18 02:29N 68°48' E 016°33'0 0.0
2018-Jan-18 01:59N 68°48' E 016°33'0 0.0
2018-Jan-18 01:29N 68°48' E 016°33'0 0.0
2018-Jan-18 00:59N 68°48' E 016°33'0 0.0
2018-Jan-17 23:59N 68°48' E 016°33'0 0.0
2018-Jan-17 23:56N 68°48' E 016°33'  
2018-Jan-12 14:56N 68°43' E 017°26'4 8.6
2018-Jan-12 14:30N 68°45' E 017°16'4 9.0
2018-Jan-12 14:00N 68°48' E 017°10'4 8.9
2018-Jan-12 13:30N 68°52' E 017°03'4 9.0
2018-Jan-12 13:00N 68°52' E 016°51'4 4.2
2018-Jan-12 12:04N 68°52' E 016°40'0 0.0
2018-Jan-12 11:59N 68°52' E 016°40'0 0.0
2018-Jan-12 11:29N 68°52' E 016°40'0 0.0
2018-Jan-12 11:00N 68°52' E 016°40'0 0.0
2018-Jan-12 10:29N 68°52' E 016°40'0 0.0
2018-Jan-12 10:00N 68°52' E 016°40'0 0.4
2018-Jan-12 09:30N 68°52' E 016°40'0 0.1
2018-Jan-12 09:00N 68°52' E 016°40'0 0.4
2018-Jan-12 08:30N 68°52' E 016°40'0 0.4
2018-Jan-12 08:00N 68°52' E 016°40'0 0.0
2018-Jan-12 07:29N 68°52' E 016°40'0 0.0
2018-Jan-12 07:00N 68°52' E 016°40'2 3.1
2018-Jan-12 06:30N 68°51' E 016°37'3 5.5
2018-Jan-12 06:00N 68°49' E 016°33'0 0.3
2018-Jan-12 05:30N 68°48' E 016°33'0 0.0
2018-Jan-12 05:00N 68°48' E 016°33'0 0.0
2018-Jan-12 04:30N 68°48' E 016°33'0 0.0
2018-Jan-12 04:00N 68°48' E 016°33'0 0.0
2018-Jan-12 03:30N 68°48' E 016°33'0 0.0
2018-Jan-12 03:00N 68°48' E 016°33'0 0.0
2018-Jan-12 02:30N 68°48' E 016°33'0 0.0
2018-Jan-12 02:00N 68°48' E 016°33'0 0.0
2018-Jan-12 01:30N 68°48' E 016°33'0 0.0
2018-Jan-12 01:00N 68°48' E 016°33'0 0.0
2018-Jan-12 00:30N 68°48' E 016°33'0 0.0
2018-Jan-12 00:00N 68°48' E 016°33'0 0.0
2018-Jan-11 23:30N 68°48' E 016°33'0 0.0
2018-Jan-11 23:00N 68°48' E 016°33'0 0.0
2018-Jan-11 22:30N 68°48' E 016°33'0 0.0
2018-Jan-11 22:00N 68°48' E 016°33'1 1.9
2018-Jan-11 21:30N 68°48' E 016°35'2 3.9
2018-Jan-11 21:00N 68°47' E 016°39'3 5.3
2018-Jan-11 20:30N 68°45' E 016°44'3 6.0
2018-Jan-11 20:00N 68°43' E 016°50'2 3.7
2018-Jan-11 19:30N 68°43' E 016°55'2 4.3
2018-Jan-11 19:00N 68°44' E 017°01'2 4.2
2018-Jan-11 18:30N 68°44' E 017°07'1 2.7
2018-Jan-11 18:00N 68°46' E 017°09'0 0.0
2018-Jan-11 17:30N 68°46' E 017°09'0 0.0
2018-Jan-11 17:00N 68°46' E 017°09'0 0.0
2018-Jan-11 16:30N 68°46' E 017°09'0 0.9
2018-Jan-11 16:00N 68°45' E 017°09'3 5.1
2018-Jan-11 15:30N 68°43' E 017°06'1 2.9
2018-Jan-11 15:00N 68°42' E 017°03'0 0.0
2018-Jan-11 14:30N 68°42' E 017°03'0 0.0
2018-Jan-11 14:00N 68°42' E 017°03'0 0.0
2018-Jan-11 13:30N 68°42' E 017°03'0 0.0
2018-Jan-11 13:00N 68°42' E 017°03'2 4.4
2018-Jan-11 12:30N 68°43' E 017°07'2 4.6
2018-Jan-11 12:00N 68°46' E 017°09'0 0.0
2018-Jan-11 11:29N 68°46' E 017°09'0 0.0
2018-Jan-11 11:00N 68°46' E 017°09'0 0.0
2018-Jan-11 10:30N 68°46' E 017°09'2 4.0
2018-Jan-11 10:00N 68°44' E 017°07'2 4.8
2018-Jan-11 09:30N 68°42' E 017°03'0 0.0
2018-Jan-11 09:00N 68°42' E 017°03'0 0.0
2018-Jan-11 08:30N 68°42' E 017°03'0 0.0
2018-Jan-11 08:00N 68°42' E 017°03'0 0.0
2018-Jan-11 07:29N 68°42' E 017°03'0 0.2
2018-Jan-11 07:00N 68°42' E 017°04'2 3.1
2018-Jan-11 06:30N 68°43' E 017°03'5 9.9
2018-Jan-11 05:59N 68°43' E 016°50'5 9.1
2018-Jan-11 05:30N 68°46' E 016°41'4 7.3
2018-Jan-11 04:59N 68°48' E 016°33'0 0.0
2018-Jan-11 04:29N 68°48' E 016°33'0 0.0
2018-Jan-11 03:59N 68°48' E 016°33'0 0.0
2018-Jan-11 03:29N 68°48' E 016°33'0 0.0
2018-Jan-11 02:59N 68°48' E 016°33'0 0.0
2018-Jan-11 02:29N 68°48' E 016°33'0 0.0
2018-Jan-11 01:59N 68°48' E 016°33'0 0.0
2018-Jan-11 01:29N 68°48' E 016°33'0 0.0
2018-Jan-11 00:59N 68°48' E 016°33'0 0.0
2018-Jan-11 00:29N 68°48' E 016°33'0 0.0
2018-Jan-10 23:59N 68°48' E 016°33'0 0.0
2018-Jan-10 23:29N 68°48' E 016°33'0 0.0
2018-Jan-10 22:59N 68°48' E 016°33'0 0.0
2018-Jan-10 22:29N 68°48' E 016°33'0 0.0
2018-Jan-10 21:59N 68°48' E 016°33'0 0.0
2018-Jan-10 21:29N 68°48' E 016°33'0 0.0
2018-Jan-10 20:59N 68°48' E 016°33'0 0.0
2018-Jan-10 20:29N 68°48' E 016°33'0 0.0
2018-Jan-10 19:59N 68°48' E 016°33'0 0.0
2018-Jan-10 19:29N 68°48' E 016°33'0 0.0
2018-Jan-10 18:59N 68°48' E 016°33'0 0.0
2018-Jan-10 18:26N 68°48' E 016°33'0 0.0
2018-Jan-10 17:59N 68°48' E 016°33'0 0.0
2018-Jan-10 17:29N 68°48' E 016°33'0 0.0
2018-Jan-10 16:59N 68°48' E 016°33'0 0.0
2018-Jan-10 16:29N 68°48' E 016°33'0 0.0
2018-Jan-10 15:59N 68°48' E 016°33'0 0.0
2018-Jan-10 15:29N 68°48' E 016°33'0 0.0
2018-Jan-10 14:59N 68°48' E 016°33'0 0.0
2018-Jan-10 14:29N 68°48' E 016°33'0 0.0
2018-Jan-10 13:59N 68°48' E 016°33'0 0.0
2018-Jan-10 13:29N 68°48' E 016°33'0 0.0
2018-Jan-10 12:59N 68°48' E 016°33'0 0.0
2018-Jan-10 12:29N 68°48' E 016°33'0 0.0
2018-Jan-10 11:59N 68°48' E 016°33'0 0.0
2018-Jan-10 11:29N 68°48' E 016°33'0 0.0
2018-Jan-10 10:59N 68°48' E 016°33'0 0.0
2018-Jan-10 10:29N 68°48' E 016°33'0 0.0
2018-Jan-10 09:59N 68°48' E 016°33'0 0.0
2018-Jan-10 09:29N 68°48' E 016°33'0 0.0
2018-Jan-10 08:59N 68°48' E 016°33'0 0.0
2018-Jan-10 08:29N 68°48' E 016°33'0 0.0
2018-Jan-10 07:59N 68°48' E 016°33'0 0.0
2018-Jan-10 07:29N 68°48' E 016°33'0 0.0
2018-Jan-10 06:59N 68°48' E 016°33'0 0.0
2018-Jan-10 06:29N 68°48' E 016°33'0 0.0
2018-Jan-10 05:59N 68°48' E 016°33'0 0.0
2018-Jan-10 05:29N 68°48' E 016°33'0 0.0
2018-Jan-10 04:59N 68°48' E 016°33'0 0.0
2018-Jan-10 04:29N 68°48' E 016°33'0 0.1
2018-Jan-10 04:00N 68°48' E 016°33'2 4.3
2018-Jan-10 03:30N 68°49' E 016°38'4 8.1
2018-Jan-10 03:00N 68°51' E 016°49'4 8.1
2018-Jan-10 02:30N 68°52' E 016°59'4 8.6
2018-Jan-10 02:00N 68°50' E 017°08'  
Track history (hours):
 
Tides and Currents Weather Stations Pressure Air Temp Water Temp Dewpoint Dewpoint Depression Visibility Wind Speed Wind Dir Waves Ship Positions

Lifjell

Last reported at 2018-Jan-20 01:30 UTC. Time now 2018-Jan-20 01:34 UTC.
Position N 68°44' E 016°46'.

Length 63 m; draft 5.2 m.

Type: Cargo ship. MMSI: 259091000.

Date/timePositionNaut miles runAvg speedWind from/ knotsBaromVisibWave heightAir tempDewpointWater temp
2018-Jan-20 01:30N 68°44' E 016°46'2 3.9
2018-Jan-20 01:00N 68°43' E 016°50'2 4.9
2018-Jan-20 00:30N 68°43' E 016°56'3 6.4
2018-Jan-20 00:00N 68°44' E 017°05'2 3.7
2018-Jan-19 23:28N 68°46' E 017°09'0 0.1
2018-Jan-19 22:58N 68°46' E 017°09'0 0.1
2018-Jan-19 22:28N 68°46' E 017°09'0 0.0
2018-Jan-19 21:58N 68°46' E 017°09'3 5.3
2018-Jan-19 21:29N 68°43' E 017°06'2 3.7
2018-Jan-19 21:00N 68°42' E 017°03'0 0.0
2018-Jan-19 20:30N 68°42' E 017°03'0 0.0
2018-Jan-19 20:00N 68°42' E 017°03'0 0.0
2018-Jan-19 19:30N 68°42' E 017°03'1 2.8
2018-Jan-19 19:00N 68°43' E 017°05'3 5.5
2018-Jan-19 18:28N 68°46' E 017°09'0 0.0
2018-Jan-19 17:55N 68°46' E 017°09'0 0.0
2018-Jan-19 17:28N 68°46' E 017°09'1 3.2
2018-Jan-19 16:59N 68°44' E 017°08'3 5.6
2018-Jan-19 16:28N 68°42' E 017°03'0 0.0
2018-Jan-19 15:58N 68°42' E 017°03'0 0.0
2018-Jan-19 15:28N 68°42' E 017°03'0 0.0
2018-Jan-19 14:58N 68°42' E 017°03'0 0.0
2018-Jan-19 14:28N 68°42' E 017°03'0 0.0
2018-Jan-19 13:58N 68°42' E 017°03'0 0.0
2018-Jan-19 13:29N 68°42' E 017°03'0 0.0
2018-Jan-19 13:00N 68°42' E 017°03'0 0.0
2018-Jan-19 12:28N 68°42' E 017°03'0 0.0
2018-Jan-19 11:58N 68°42' E 017°03'0 0.0
2018-Jan-19 11:28N 68°42' E 017°03'0 0.0
2018-Jan-19 10:58N 68°42' E 017°03'0 0.0
2018-Jan-19 10:28N 68°42' E 017°03'0 0.0
2018-Jan-19 09:58N 68°42' E 017°03'3 6.6
2018-Jan-19 09:30N 68°44' E 017°08'5 9.5
2018-Jan-19 08:59N 68°49' E 017°09'510.6
2018-Jan-19 08:30N 68°53' E 017°01'510.5
2018-Jan-19 08:00N 68°58' E 016°54'510.8
2018-Jan-19 07:30N 69°03' E 016°46'510.2
2018-Jan-19 07:00N 69°08' E 016°47'610.9
2018-Jan-19 06:30N 69°13' E 016°52'611.1
2018-Jan-19 06:00N 69°19' E 016°52'4 8.9
2018-Jan-19 05:30N 69°20' E 017°04'0 0.9
2018-Jan-19 04:58N 69°20' E 017°06'0 0.0
2018-Jan-19 04:28N 69°20' E 017°06'1 2.0
2018-Jan-19 04:00N 69°20' E 017°03'4 8.3
2018-Jan-19 03:30N 69°22' E 016°52'4 8.6
2018-Jan-19 03:00N 69°26' E 016°49'4 8.6
2018-Jan-19 02:30N 69°29' E 016°57'4 8.1
2018-Jan-19 02:00N 69°29' E 017°09'5 9.3
2018-Jan-19 01:30N 69°26' E 017°18'1 1.6
2018-Jan-19 00:55N 69°25' E 017°20'0 0.0
2018-Jan-19 00:28N 69°25' E 017°20'0 0.0
2018-Jan-18 23:58N 69°25' E 017°20'0 0.0
2018-Jan-18 23:28N 69°25' E 017°20'0 0.0
2018-Jan-18 22:58N 69°25' E 017°20'0 0.0
2018-Jan-18 22:22N 69°25' E 017°20'0 0.1
2018-Jan-18 21:56N 69°25' E 017°20'3 6.7
2018-Jan-18 21:30N 69°27' E 017°13'5 9.2
2018-Jan-18 21:00N 69°31' E 017°09'4 8.9
2018-Jan-18 20:30N 69°30' E 016°56'5 9.6
2018-Jan-18 20:00N 69°26' E 016°49'510.2
2018-Jan-18 19:30N 69°21' E 016°50'510.5
2018-Jan-18 19:00N 69°16' E 016°52'510.4
2018-Jan-18 18:30N 69°11' E 016°50'510.6
2018-Jan-18 18:00N 69°06' E 016°45'510.4
2018-Jan-18 17:30N 69°01' E 016°49'610.9
2018-Jan-18 17:00N 68°56' E 016°57'511.1
2018-Jan-18 16:30N 68°51' E 017°05'610.9
2018-Jan-18 15:59N 68°46' E 017°13'5 9.9
2018-Jan-18 15:31N 68°44' E 017°24'1 0.4
2018-Jan-18 13:09N 68°43' E 017°26'1 7.4
2018-Jan-18 12:58N 68°44' E 017°23'4 8.2
2018-Jan-18 12:30N 68°46' E 017°14'4 8.7
2018-Jan-18 12:00N 68°50' E 017°08'4 7.9
2018-Jan-18 11:30N 68°53' E 017°01'5 9.3
2018-Jan-18 11:00N 68°52' E 016°48'3 5.5
2018-Jan-18 10:29N 68°52' E 016°40'0 0.0
2018-Jan-18 09:59N 68°52' E 016°40'0 0.0
2018-Jan-18 09:29N 68°52' E 016°40'0 0.0
2018-Jan-18 08:59N 68°52' E 016°40'0 0.0
2018-Jan-18 08:29N 68°52' E 016°40'0 0.0
2018-Jan-18 08:00N 68°52' E 016°40'0 0.2
2018-Jan-18 07:29N 68°52' E 016°40'1 1.7
2018-Jan-18 07:00N 68°51' E 016°39'2 4.0
2018-Jan-18 06:30N 68°50' E 016°36'2 3.3
2018-Jan-18 05:59N 68°48' E 016°33'0 0.0
2018-Jan-18 05:29N 68°48' E 016°33'0 0.0
2018-Jan-18 04:59N 68°48' E 016°33'0 0.0
2018-Jan-18 04:29N 68°48' E 016°33'0 0.0
2018-Jan-18 03:59N 68°48' E 016°33'0 0.0
2018-Jan-18 03:29N 68°48' E 016°33'0 0.0
2018-Jan-18 02:59N 68°48' E 016°33'0 0.0
2018-Jan-18 02:29N 68°48' E 016°33'0 0.0
2018-Jan-18 01:59N 68°48' E 016°33'0 0.0
2018-Jan-18 01:29N 68°48' E 016°33'0 0.0
2018-Jan-18 00:59N 68°48' E 016°33'0 0.0
2018-Jan-17 23:59N 68°48' E 016°33'0 0.0
2018-Jan-17 23:56N 68°48' E 016°33'  
2018-Jan-12 14:56N 68°43' E 017°26'4 8.6
2018-Jan-12 14:30N 68°45' E 017°16'4 9.0
2018-Jan-12 14:00N 68°48' E 017°10'4 8.9
2018-Jan-12 13:30N 68°52' E 017°03'4 9.0
2018-Jan-12 13:00N 68°52' E 016°51'4 4.2
2018-Jan-12 12:04N 68°52' E 016°40'0 0.0
2018-Jan-12 11:59N 68°52' E 016°40'0 0.0
2018-Jan-12 11:29N 68°52' E 016°40'0 0.0
2018-Jan-12 11:00N 68°52' E 016°40'0 0.0
2018-Jan-12 10:29N 68°52' E 016°40'0 0.0
2018-Jan-12 10:00N 68°52' E 016°40'0 0.4
2018-Jan-12 09:30N 68°52' E 016°40'0 0.1
2018-Jan-12 09:00N 68°52' E 016°40'0 0.4
2018-Jan-12 08:30N 68°52' E 016°40'0 0.4
2018-Jan-12 08:00N 68°52' E 016°40'0 0.0
2018-Jan-12 07:29N 68°52' E 016°40'0 0.0
2018-Jan-12 07:00N 68°52' E 016°40'2 3.1
2018-Jan-12 06:30N 68°51' E 016°37'3 5.5
2018-Jan-12 06:00N 68°49' E 016°33'0 0.3
2018-Jan-12 05:30N 68°48' E 016°33'0 0.0
2018-Jan-12 05:00N 68°48' E 016°33'0 0.0
2018-Jan-12 04:30N 68°48' E 016°33'0 0.0
2018-Jan-12 04:00N 68°48' E 016°33'0 0.0
2018-Jan-12 03:30N 68°48' E 016°33'0 0.0
2018-Jan-12 03:00N 68°48' E 016°33'0 0.0
2018-Jan-12 02:30N 68°48' E 016°33'0 0.0
2018-Jan-12 02:00N 68°48' E 016°33'0 0.0
2018-Jan-12 01:30N 68°48' E 016°33'0 0.0
2018-Jan-12 01:00N 68°48' E 016°33'0 0.0
2018-Jan-12 00:30N 68°48' E 016°33'0 0.0
2018-Jan-12 00:00N 68°48' E 016°33'0 0.0
2018-Jan-11 23:30N 68°48' E 016°33'0 0.0
2018-Jan-11 23:00N 68°48' E 016°33'0 0.0
2018-Jan-11 22:30N 68°48' E 016°33'0 0.0
2018-Jan-11 22:00N 68°48' E 016°33'1 1.9
2018-Jan-11 21:30N 68°48' E 016°35'2 3.9
2018-Jan-11 21:00N 68°47' E 016°39'3 5.3
2018-Jan-11 20:30N 68°45' E 016°44'3 6.0
2018-Jan-11 20:00N 68°43' E 016°50'2 3.7
2018-Jan-11 19:30N 68°43' E 016°55'2 4.3
2018-Jan-11 19:00N 68°44' E 017°01'2 4.2
2018-Jan-11 18:30N 68°44' E 017°07'1 2.7
2018-Jan-11 18:00N 68°46' E 017°09'0 0.0
2018-Jan-11 17:30N 68°46' E 017°09'0 0.0
2018-Jan-11 17:00N 68°46' E 017°09'0 0.0
2018-Jan-11 16:30N 68°46' E 017°09'0 0.9
2018-Jan-11 16:00N 68°45' E 017°09'3 5.1
2018-Jan-11 15:30N 68°43' E 017°06'1 2.9
2018-Jan-11 15:00N 68°42' E 017°03'0 0.0
2018-Jan-11 14:30N 68°42' E 017°03'0 0.0
2018-Jan-11 14:00N 68°42' E 017°03'0 0.0
2018-Jan-11 13:30N 68°42' E 017°03'0 0.0
2018-Jan-11 13:00N 68°42' E 017°03'2 4.4
2018-Jan-11 12:30N 68°43' E 017°07'2 4.6
2018-Jan-11 12:00N 68°46' E 017°09'0 0.0
2018-Jan-11 11:29N 68°46' E 017°09'0 0.0
2018-Jan-11 11:00N 68°46' E 017°09'0 0.0
2018-Jan-11 10:30N 68°46' E 017°09'2 4.0
2018-Jan-11 10:00N 68°44' E 017°07'2 4.8
2018-Jan-11 09:30N 68°42' E 017°03'0 0.0
2018-Jan-11 09:00N 68°42' E 017°03'0 0.0
2018-Jan-11 08:30N 68°42' E 017°03'0 0.0
2018-Jan-11 08:00N 68°42' E 017°03'0 0.0
2018-Jan-11 07:29N 68°42' E 017°03'0 0.2
2018-Jan-11 07:00N 68°42' E 017°04'2 3.1
2018-Jan-11 06:30N 68°43' E 017°03'5 9.9
2018-Jan-11 05:59N 68°43' E 016°50'5 9.1
2018-Jan-11 05:30N 68°46' E 016°41'4 7.3
2018-Jan-11 04:59N 68°48' E 016°33'0 0.0
2018-Jan-11 04:29N 68°48' E 016°33'0 0.0
2018-Jan-11 03:59N 68°48' E 016°33'0 0.0
2018-Jan-11 03:29N 68°48' E 016°33'0 0.0
2018-Jan-11 02:59N 68°48' E 016°33'0 0.0
2018-Jan-11 02:29N 68°48' E 016°33'0 0.0
2018-Jan-11 01:59N 68°48' E 016°33'0 0.0
2018-Jan-11 01:29N 68°48' E 016°33'0 0.0
2018-Jan-11 00:59N 68°48' E 016°33'0 0.0
2018-Jan-11 00:29N 68°48' E 016°33'0 0.0
2018-Jan-10 23:59N 68°48' E 016°33'0 0.0
2018-Jan-10 23:29N 68°48' E 016°33'0 0.0
2018-Jan-10 22:59N 68°48' E 016°33'0 0.0
2018-Jan-10 22:29N 68°48' E 016°33'0 0.0
2018-Jan-10 21:59N 68°48' E 016°33'0 0.0
2018-Jan-10 21:29N 68°48' E 016°33'0 0.0
2018-Jan-10 20:59N 68°48' E 016°33'0 0.0
2018-Jan-10 20:29N 68°48' E 016°33'0 0.0
2018-Jan-10 19:59N 68°48' E 016°33'0 0.0
2018-Jan-10 19:29N 68°48' E 016°33'0 0.0
2018-Jan-10 18:59N 68°48' E 016°33'0 0.0
2018-Jan-10 18:26N 68°48' E 016°33'0 0.0
2018-Jan-10 17:59N 68°48' E 016°33'0 0.0
2018-Jan-10 17:29N 68°48' E 016°33'0 0.0
2018-Jan-10 16:59N 68°48' E 016°33'0 0.0
2018-Jan-10 16:29N 68°48' E 016°33'0 0.0
2018-Jan-10 15:59N 68°48' E 016°33'0 0.0
2018-Jan-10 15:29N 68°48' E 016°33'0 0.0
2018-Jan-10 14:59N 68°48' E 016°33'0 0.0
2018-Jan-10 14:29N 68°48' E 016°33'0 0.0
2018-Jan-10 13:59N 68°48' E 016°33'0 0.0
2018-Jan-10 13:29N 68°48' E 016°33'0 0.0
2018-Jan-10 12:59N 68°48' E 016°33'0 0.0
2018-Jan-10 12:29N 68°48' E 016°33'0 0.0
2018-Jan-10 11:59N 68°48' E 016°33'0 0.0
2018-Jan-10 11:29N 68°48' E 016°33'0 0.0
2018-Jan-10 10:59N 68°48' E 016°33'0 0.0
2018-Jan-10 10:29N 68°48' E 016°33'0 0.0
2018-Jan-10 09:59N 68°48' E 016°33'0 0.0
2018-Jan-10 09:29N 68°48' E 016°33'0 0.0
2018-Jan-10 08:59N 68°48' E 016°33'0 0.0
2018-Jan-10 08:29N 68°48' E 016°33'0 0.0
2018-Jan-10 07:59N 68°48' E 016°33'0 0.0
2018-Jan-10 07:29N 68°48' E 016°33'0 0.0
2018-Jan-10 06:59N 68°48' E 016°33'0 0.0
2018-Jan-10 06:29N 68°48' E 016°33'0 0.0
2018-Jan-10 05:59N 68°48' E 016°33'0 0.0
2018-Jan-10 05:29N 68°48' E 016°33'0 0.0
2018-Jan-10 04:59N 68°48' E 016°33'0 0.0
2018-Jan-10 04:29N 68°48' E 016°33'0 0.1
2018-Jan-10 04:00N 68°48' E 016°33'2 4.3
2018-Jan-10 03:30N 68°49' E 016°38'4 8.1
2018-Jan-10 03:00N 68°51' E 016°49'4 8.1
2018-Jan-10 02:30N 68°52' E 016°59'4 8.6
2018-Jan-10 02:00N 68°50' E 017°08'  

Dump ship's entire track history